Time;durP1;ratioP1;P1;durP2;ratioP2;P2;SDS_P1;SDS_P2;PMS_P1;PMS_P2;Temp;Humidity;BMP_temperature;BMP_pressure;BME280_temperature;BME280_humidity;BME280_pressure;Samples;Min_cycle;Max_cycle;Signal;HPM_P1;HPM_P2
2024/01/31 02:23:42;;;;;;;21.13;3.40;;;;;;;;;;6312312;22;20021;-91
2024/01/31 02:26:08;;;;;;;29.02;3.60;;;;;;;;;;6325661;22;20082;-93
2024/01/31 02:28:33;;;;;;;21.60;3.47;;;;;;;;;;6314271;22;20487;-93
2024/01/31 02:30:59;;;;;;;21.52;3.08;;;;;;;;;;6313517;22;19998;-93
2024/01/31 02:33:24;;;;;;;23.63;4.20;;;;;;;;;;6312871;22;20004;-95
2024/01/31 02:35:50;;;;;;;32.13;4.05;;;;;;;;;;6316543;22;19991;-95
2024/01/31 02:38:15;;;;;;;28.48;4.50;;;;;;;;;;6319400;22;20053;-92
2024/01/31 02:40:40;;;;;;;27.35;5.32;;;;;;;;;;6326799;22;19984;-91
2024/01/31 02:43:06;;;;;;;25.75;4.13;;;;;;;;;;6331816;22;19988;-90
2024/01/31 02:45:31;;;;;;;22.67;3.33;;;;;;;;;;6336928;22;20029;-93
2024/01/31 02:47:57;;;;;;;15.65;2.90;;;;;;;;;;6335727;22;19999;-93
2024/01/31 02:50:22;;;;;;;20.58;2.60;;;;;;;;;;6335739;22;19994;-91
2024/01/31 02:52:48;;;;;;;18.42;2.58;;;;;;;;;;6334973;22;19991;-94
2024/01/31 02:55:14;;;;;;;6.93;1.67;;;;;;;;;;6335460;22;20012;-92
2024/01/31 02:57:39;;;;;;;8.00;1.70;;;;;;;;;;6331644;22;19992;-92
2024/01/31 03:00:06;;;;;;;9.30;1.50;;;;;;;;;;6328719;22;19995;-92
2024/01/31 03:02:32;;;;;;;17.67;2.33;;;;;;;;;;6329243;22;19995;-94
2024/01/31 03:04:57;;;;;;;23.45;2.83;;;;;;;;;;6328651;22;20483;-92
2024/01/31 03:07:23;;;;;;;13.73;3.17;;;;;;;;;;6314463;22;20349;-94
2024/01/31 03:09:48;;;;;;;12.13;2.47;;;;;;;;;;6317341;22;20002;-91
2024/01/31 03:12:13;;;;;;;15.15;2.40;;;;;;;;;;6314088;22;19985;-93
2024/01/31 03:14:39;;;;;;;10.20;2.10;;;;;;;;;;6315167;22;20014;-92
2024/01/31 03:17:04;;;;;;;13.45;2.47;;;;;;;;;;6312455;22;20003;-92
2024/01/31 03:19:30;;;;;;;13.13;2.88;;;;;;;;;;6310985;22;20075;-89
2024/01/31 03:21:56;;;;;;;4.43;1.63;;;;;;;;;;6307554;22;20299;-92
2024/01/31 03:24:22;;;;;;;7.95;2.70;;;;;;;;;;6309189;22;20004;-93
2024/01/31 03:26:47;;;;;;;9.40;2.08;;;;;;;;;;6308465;22;19991;-93
2024/01/31 03:29:12;;;;;;;16.65;3.35;;;;;;;;;;6308404;22;20422;-92
2024/01/31 03:31:38;;;;;;;16.25;2.90;;;;;;;;;;6309207;22;20070;-92
2024/01/31 03:34:06;;;;;;;9.05;2.53;;;;;;;;;;6308737;22;20029;-91
2024/01/31 03:36:32;;;;;;;12.23;2.80;;;;;;;;;;6310124;22;19991;-92
2024/01/31 03:39:00;;;;;;;16.00;3.45;;;;;;;;;;6308813;22;20026;-92
2024/01/31 03:41:26;;;;;;;25.05;4.05;;;;;;;;;;6312516;22;20035;-92
2024/01/31 03:43:52;;;;;;;19.63;4.13;;;;;;;;;;6308581;22;19991;-91
2024/01/31 03:46:17;;;;;;;24.52;3.83;;;;;;;;;;6308956;22;20045;-91
2024/01/31 03:48:43;;;;;;;20.38;4.35;;;;;;;;;;6307300;22;19995;-92
2024/01/31 03:51:20;;;;;;;22.75;4.03;;;;;;;;;;6308964;22;20345;-92
2024/01/31 03:53:46;;;;;;;20.27;3.53;;;;;;;;;;6310658;22;20003;-92
2024/01/31 03:56:12;;;;;;;17.17;3.83;;;;;;;;;;6309213;22;20384;-92
2024/01/31 03:58:38;;;;;;;14.23;3.75;;;;;;;;;;6310140;22;20025;-91
2024/01/31 04:01:03;;;;;;;11.27;3.80;;;;;;;;;;6308235;22;20006;-92
2024/01/31 04:03:28;;;;;;;15.50;3.40;;;;;;;;;;6316018;22;19987;-93
2024/01/31 04:05:55;;;;;;;14.27;3.35;;;;;;;;;;6327903;22;19987;-91
2024/01/31 04:08:20;;;;;;;18.63;4.38;;;;;;;;;;6312502;22;19991;-92
2024/01/31 04:10:46;;;;;;;16.88;3.50;;;;;;;;;;6306557;22;20060;-91
2024/01/31 04:13:11;;;;;;;13.70;3.50;;;;;;;;;;6307704;22;19999;-90
2024/01/31 04:15:37;;;;;;;14.48;3.80;;;;;;;;;;6307700;22;20438;-92
2024/01/31 04:18:03;;;;;;;18.83;4.30;;;;;;;;;;6308154;22;19999;-92
2024/01/31 04:20:28;;;;;;;11.27;3.55;;;;;;;;;;6308494;22;20081;-91
2024/01/31 04:22:54;;;;;;;12.27;3.25;;;;;;;;;;6309965;22;20000;-91
2024/01/31 04:25:19;;;;;;;14.25;3.70;;;;;;;;;;6307854;22;20006;-93
2024/01/31 04:27:44;;;;;;;10.57;3.50;;;;;;;;;;6309202;22;19995;-94
2024/01/31 04:30:10;;;;;;;14.85;3.58;;;;;;;;;;6306360;22;20068;-90
2024/01/31 04:32:36;;;;;;;13.90;3.67;;;;;;;;;;6309765;22;20045;-92
2024/01/31 04:35:01;;;;;;;10.88;3.72;;;;;;;;;;6306261;22;20003;-93
2024/01/31 04:37:26;;;;;;;14.80;3.40;;;;;;;;;;6308333;22;19991;-93
2024/01/31 04:39:52;;;;;;;12.75;3.25;;;;;;;;;;6307001;22;19995;-93
2024/01/31 04:42:17;;;;;;;11.27;3.38;;;;;;;;;;6309838;22;20007;-93
2024/01/31 04:44:45;;;;;;;18.42;4.10;;;;;;;;;;6308276;22;20002;-90
2024/01/31 04:47:11;;;;;;;16.90;3.90;;;;;;;;;;6308324;22;19992;-93
2024/01/31 04:49:36;;;;;;;11.05;3.47;;;;;;;;;;6310204;22;20004;-93
2024/01/31 04:52:02;;;;;;;11.55;3.83;;;;;;;;;;6312029;22;19999;-93
2024/01/31 04:54:27;;;;;;;12.00;3.70;;;;;;;;;;6307149;22;20010;-95
2024/01/31 04:56:52;;;;;;;7.47;3.60;;;;;;;;;;6309756;22;19991;-94
2024/01/31 04:59:18;;;;;;;17.08;3.88;;;;;;;;;;6311218;22;19987;-92
2024/01/31 05:01:43;;;;;;;17.75;3.70;;;;;;;;;;6310944;22;19995;-94
2024/01/31 05:04:22;;;;;;;26.08;4.90;;;;;;;;;;6309528;22;20003;-91
2024/01/31 05:07:45;;;;;;;;;;;;;;;;;;;;;
2024/01/31 05:10:20;;;;;;;12.90;3.40;;;;;;;;;;6261944;22;19995;-94
2024/01/31 05:12:45;;;;;;;8.73;3.55;;;;;;;;;;6308981;22;20101;-93
2024/01/31 05:15:11;;;;;;;14.88;3.30;;;;;;;;;;6312425;22;20004;-90
2024/01/31 05:17:36;;;;;;;15.30;3.90;;;;;;;;;;6308251;22;20422;-93
2024/01/31 05:20:02;;;;;;;18.63;3.70;;;;;;;;;;6309874;22;20064;-90
2024/01/31 05:22:28;;;;;;;13.23;3.78;;;;;;;;;;6308350;22;20531;-93
2024/01/31 05:24:53;;;;;;;12.55;3.67;;;;;;;;;;6310095;22;19995;-91
2024/01/31 05:27:18;;;;;;;8.35;3.80;;;;;;;;;;6311148;22;20023;-93
2024/01/31 05:29:44;;;;;;;7.55;3.60;;;;;;;;;;6311032;22;19999;-92
2024/01/31 05:32:09;;;;;;;12.13;3.83;;;;;;;;;;6313047;22;20037;-91
2024/01/31 05:34:34;;;;;;;20.98;5.10;;;;;;;;;;6309825;22;20043;-91
2024/01/31 05:37:00;;;;;;;14.60;4.30;;;;;;;;;;6309971;22;20097;-91
2024/01/31 05:39:25;;;;;;;15.00;4.88;;;;;;;;;;6309254;22;20006;-91
2024/01/31 05:41:51;;;;;;;12.93;4.75;;;;;;;;;;6312640;22;20001;-92
2024/01/31 05:44:16;;;;;;;21.02;5.13;;;;;;;;;;6311970;22;19995;-93
2024/01/31 05:46:44;;;;;;;7.68;4.07;;;;;;;;;;6311492;22;20558;-93
2024/01/31 05:49:09;;;;;;;5.18;3.50;;;;;;;;;;6310207;22;19991;-93
2024/01/31 05:51:34;;;;;;;10.20;4.20;;;;;;;;;;6312223;22;20428;-92
2024/01/31 05:54:00;;;;;;;10.23;4.15;;;;;;;;;;6310011;22;20345;-92
2024/01/31 05:56:25;;;;;;;15.13;4.88;;;;;;;;;;6310209;22;20011;-91
2024/01/31 05:58:51;;;;;;;7.32;3.85;;;;;;;;;;6309661;22;20117;-93
2024/01/31 06:01:16;;;;;;;11.63;3.97;;;;;;;;;;6311080;22;19998;-91
2024/01/31 06:03:41;;;;;;;13.80;4.40;;;;;;;;;;6314055;22;20418;-92
2024/01/31 06:06:07;;;;;;;15.38;4.35;;;;;;;;;;6311634;22;20007;-92
2024/01/31 06:08:32;;;;;;;15.63;4.43;;;;;;;;;;6329278;22;19995;-91
2024/01/31 06:11:03;;;;;;;16.67;4.85;;;;;;;;;;6335536;22;19998;-94
2024/01/31 06:13:29;;;;;;;14.93;4.55;;;;;;;;;;6324424;22;20015;-92
2024/01/31 06:15:54;;;;;;;17.55;4.60;;;;;;;;;;6312265;22;20070;-93
2024/01/31 06:18:20;;;;;;;17.75;5.10;;;;;;;;;;6311594;22;20020;-92
2024/01/31 06:20:46;;;;;;;10.20;4.22;;;;;;;;;;6310054;22;20490;-91
2024/01/31 06:23:12;;;;;;;11.80;4.32;;;;;;;;;;6313672;22;20063;-93
2024/01/31 06:25:38;;;;;;;15.77;4.07;;;;;;;;;;6308326;22;19998;-92
2024/01/31 06:28:05;;;;;;;16.27;4.32;;;;;;;;;;6309433;22;20341;-91
2024/01/31 06:30:53;;;;;;;11.43;3.83;;;;;;;;;;6308064;22;20303;-91
2024/01/31 06:33:23;;;;;;;13.88;4.00;;;;;;;;;;6312382;22;20038;-94
2024/01/31 06:35:48;;;;;;;9.25;3.45;;;;;;;;;;6313618;22;19998;-91
2024/01/31 06:38:13;;;;;;;6.80;3.10;;;;;;;;;;6312441;22;19992;-91
2024/01/31 06:40:39;;;;;;;8.02;2.95;;;;;;;;;;6311252;22;20078;-93
2024/01/31 06:43:04;;;;;;;7.35;3.28;;;;;;;;;;6311052;22;19991;-94
2024/01/31 06:45:30;;;;;;;14.00;3.80;;;;;;;;;;6311294;22;20006;-91
2024/01/31 13:40:38;;;;;;;10.65;2.10;;;;;;;;;;6272040;22;20096;-91
2024/01/31 13:43:04;;;;;;;12.25;2.40;;;;;;;;;;6347032;22;19998;-92
2024/01/31 13:45:30;;;;;;;12.27;2.25;;;;;;;;;;6320431;22;20009;-92
2024/01/31 16:49:14;;;;;;;24.67;5.05;;;;;;;;;;6254451;22;20041;-94
2024/01/31 16:52:00;;;;;;;22.23;4.00;;;;;;;;;;6288982;22;19998;-91
2024/01/31 16:58:09;;;;;;;24.67;4.40;;;;;;;;;;6219616;22;20029;-95
2024/01/31 17:00:44;;;;;;;22.33;3.67;;;;;;;;;;6293334;22;20062;-94
2024/01/31 17:03:44;;;;;;;25.48;4.13;;;;;;;;;;6288139;22;20002;-94
2024/01/31 17:07:13;;;;;;;;;;;;;;;;;;;;;
2024/01/31 17:10:42;;;;;;;20.40;4.88;;;;;;;;;;6202787;22;20058;-94
2024/01/31 17:13:52;;;;;;;22.20;3.60;;;;;;;;;;6047327;23;19991;-93
2024/01/31 17:16:45;;;;;;;22.00;3.88;;;;;;;;;;6189037;22;20645;-94
2024/01/31 17:20:15;;;;;;;22.05;3.72;;;;;;;;;;6222167;22;20000;-92
2024/01/31 17:23:19;;;;;;;23.92;4.13;;;;;;;;;;6194120;23;19997;-94
2024/01/31 17:25:51;;;;;;;14.82;3.92;;;;;;;;;;6167645;23;20011;-92
2024/01/31 17:28:43;;;;;;;20.23;3.40;;;;;;;;;;6248351;22;19995;-95
2024/01/31 17:35:25;;;;;;;23.05;4.55;;;;;;;;;;5958887;24;20024;-94
2024/01/31 17:38:18;;;;;;;24.73;3.53;;;;;;;;;;5939897;24;20001;-92
2024/01/31 17:41:07;;;;;;;22.45;3.90;;;;;;;;;;5934459;24;20005;-91
2024/01/31 17:44:16;;;;;;;18.30;4.32;;;;;;;;;;5906026;23;20029;-93
2024/01/31 17:46:42;;;;;;;16.80;3.50;;;;;;;;;;6164173;23;20011;-95
2024/01/31 17:49:19;;;;;;;25.33;4.60;;;;;;;;;;6199488;23;20302;-93
2024/01/31 17:51:58;;;;;;;;;;;;;;;;;;;;;
2024/01/31 17:54:40;;;;;;;20.85;4.00;;;;;;;;;;6228175;22;19991;-91
2024/01/31 17:57:50;;;;;;;;;;;;;;;;;;;;;
2024/01/31 18:03:52;;;;;;;;;;;;;;;;;;;;;
2024/01/31 18:07:01;;;;;;;;;;;;;;;;;;;;;
